Preview of NWS' New Version of Forecast
This preview is not operational and should not be used for support decisions.

Terminal Aerodrome Forecast (TAF)

Issued by National Weather Service (NWS)

                            
000
FTUS42 KMFL 180307 AAC
TAFMIA
TAF AMD
KMIA 180307Z 1803/1906 03003KT P6SM VCSH SCT015 BKN035
     FM180500 35005KT P6SM SCT010 BKN035 OVC050
     FM181700 01010KT P6SM VCSH SCT010 BKN035 OVC050=